WetterOnline ( http://www.wetteronline.de )

Wetter aktuell Garmisch-Partenkirchen

Aktuelles Wetter: Garmisch-Partenkirchen (719m)

6-stündlich | Neueste Meldungen
Ortszeit Temperatur Wetter
Di, 22.01. 7:00 -8.5° C bewölkt
Di, 22.01. 1:00 -3.4° C bedeckt
Mo, 21.01. 19:00 -2.9° C bedeckt
Mo, 21.01. 13:00 -2.3° C bedeckt
Mo, 21.01. 7:00 -8.6° C bedeckt
Mo, 21.01. 1:00 -7.7° C bedeckt
So, 20.01. 19:00 -3.2° C bedeckt
So, 20.01. 13:00 1.5° C bedeckt
Ortszeit Temperatur Wetter
Di, 22.01. 8:30 -10.3° C leicht bewölkt
Di, 22.01. 8:20 -10.3° C leicht bewölkt
Di, 22.01. 8:10 -10.1° C leicht bewölkt
Di, 22.01. 8:00 -9.8° C leicht bewölkt
Di, 22.01. 7:50 -9.8° C leicht bewölkt
Di, 22.01. 7:40 -9.8° C leicht bewölkt
Di, 22.01. 7:30 -9.1° C leicht bewölkt
Di, 22.01. 7:00 -8.5° C bewölkt
Di, 22.01. 6:30 -7.4° C bedeckt
Di, 22.01. 6:00 -7.1° C bedeckt
Di, 22.01. 5:30 -7.2° C bedeckt
Ortszeit Relative Feuchte Sichtweite
Di, 22.01. 7:00 93% 8 km
Di, 22.01. 1:00 89% 8 km
Mo, 21.01. 19:00 87% 10 km
Mo, 21.01. 13:00 68% 30 km
Mo, 21.01. 7:00 92% 50 km
Mo, 21.01. 1:00 95% 35 km
So, 20.01. 19:00 80% 30 km
So, 20.01. 13:00 43% 40 km
Ortszeit Relative Feuchte Sichtweite
Di, 22.01. 8:30 90% 16 km
Di, 22.01. 8:20 90% -
Di, 22.01. 8:10 90% -
Di, 22.01. 8:00 92% 14 km
Di, 22.01. 7:50 92% -
Di, 22.01. 7:40 90% -
Di, 22.01. 7:30 92% 13 km
Di, 22.01. 7:00 93% 8 km
Di, 22.01. 6:30 95% 1.4 km
Di, 22.01. 6:00 93% 8 km
Di, 22.01. 5:30 93% 10 km
Ortszeit Niederschlagsmenge Niederschlagsart
Di, 22.01. 7:00 0.0 l/m2 in 12 Std. -
Di, 22.01. 1:00 0.0 l/m2 in 6 Std. -
Mo, 21.01. 19:00 0.0 l/m2 in 12 Std. -
Mo, 21.01. 13:00 0.0 l/m2 in 6 Std. -
Mo, 21.01. 7:00 0.0 l/m2 in 12 Std. -
Mo, 21.01. 1:00 0.0 l/m2 in 6 Std. -
So, 20.01. 19:00 0.0 l/m2 in 12 Std. -
So, 20.01. 13:00 0.0 l/m2 in 6 Std. -
Ortszeit Niederschlagsmenge Niederschlagsart
Di, 22.01. 8:30 0.0 l/m2 in 1 Std. -
Di, 22.01. 8:20 keine Meldung -
Di, 22.01. 8:10 keine Meldung -
Di, 22.01. 8:00 0.0 l/m2 in 1 Std. -
Di, 22.01. 7:50 keine Meldung -
Di, 22.01. 7:40 keine Meldung -
Di, 22.01. 7:30 0.0 l/m2 in 1 Std. -
Di, 22.01. 7:00 0.0 l/m2 in 1 Std. -
Di, 22.01. 6:30 0.0 l/m2 in 1 Std. -
Di, 22.01. 6:00 0.0 l/m2 in 1 Std. -
Di, 22.01. 5:30 0.0 l/m2 in 1 Std. -
Ortszeit Stärke Spitze Richtung
km/h Bft. km/h Grad Sektor
Di, 22.01. 7:00 4 1 7 250° W
Di, 22.01. 1:00 4 1 11 90° O
Mo, 21.01. 19:00 4 1 11 80° O
Mo, 21.01. 13:00 4 1 7 100° O
Mo, 21.01. 7:00 4 1 7 210° SW
Mo, 21.01. 1:00 4 1 7 250° W
So, 20.01. 19:00 0 0 14 - -
So, 20.01. 13:00 6 1 9 130° SO
Ortszeit Stärke Spitze Richtung
km/h Bft. km/h Grad Sektor
Di, 22.01. 8:30 4 1 4 220° SW
Di, 22.01. 8:20 4 1 - 220° SW
Di, 22.01. 8:10 4 1 - 230° SW
Di, 22.01. 8:00 4 1 7 250° W
Di, 22.01. 7:50 4 1 - 250° W
Di, 22.01. 7:40 4 1 - 240° SW
Di, 22.01. 7:30 2 1 6 330° NW
Di, 22.01. 7:00 4 1 7 250° W
Di, 22.01. 6:30 4 1 7 200° S
Di, 22.01. 6:00 4 1 7 200° S
Di, 22.01. 5:30 4 1 7 240° SW
Ortszeit Untergrenze Bedeckung Gattung
total tief tief mittel hoch
Di, 22.01. 7:00 <30 m 8/8 5/8 - - -
Di, 22.01. 1:00 1500 m 8/8 8/8 - - -
Mo, 21.01. 19:00 1380 m 8/8 8/8 - - -
Mo, 21.01. 13:00 1320 m 8/8 8/8 - - -
Mo, 21.01. 7:00 1170 m 8/8 8/8 - - -
Mo, 21.01. 1:00 1800 m 8/8 8/8 - - -
So, 20.01. 19:00 1800 m 8/8 8/8 - - -
So, 20.01. 13:00 1500 m 8/8 8/8 - - -
Ortszeit Bedeckungsgrad in Achtel und Wolkenuntergrenze
Di, 22.01. 8:30 1(30m)
Di, 22.01. 8:20 1(30m) 2(1080m)
Di, 22.01. 8:10 2(30m) 3(1080m)
Di, 22.01. 8:00 2(30m)
Di, 22.01. 7:50 2(30m)
Di, 22.01. 7:40 2(30m)
Di, 22.01. 7:30 2(30m)
Di, 22.01. 7:00 8(<30m) 5(1200m)
Di, 22.01. 6:30 8(30m)
Di, 22.01. 6:00 8(30m)
Di, 22.01. 5:30 8(60m)
Ortszeit Luftdruck NN (hPa) Tendenz (hPa in 3 Std.)
Di, 22.01. 7:00 1018 - 1,8
Di, 22.01. 1:00 1020 - 0,4
Mo, 21.01. 19:00 1021 + 0,1
Mo, 21.01. 13:00 1021 - 0,4
Mo, 21.01. 7:00 1023 + 0,2
Mo, 21.01. 1:00 1022 + 0,7
So, 20.01. 19:00 1018 + 1,2
So, 20.01. 13:00 1015 - 0,7
Ortszeit Luftdruck NN (hPa) Tendenz (hPa in 3 Std.)
Di, 22.01. 8:30 1018 - 1,1
Di, 22.01. 8:20 1018 keine Meldung
Di, 22.01. 8:10 1018 keine Meldung
Di, 22.01. 8:00 1018 - 1,2
Di, 22.01. 7:50 1018 keine Meldung
Di, 22.01. 7:40 1018 keine Meldung
Di, 22.01. 7:30 1018 - 1,5
Di, 22.01. 7:00 1018 - 1,8
Di, 22.01. 6:30 1018 - 1,9
Di, 22.01. 6:00 1018 - 1,8
Di, 22.01. 5:30 1018 - 1,8
Ortszeit Schneehöhe (cm)
Di, 22.01. 7:00 34
Di, 22.01. 1:00 34
Mo, 21.01. 19:00 34
Mo, 21.01. 13:00 34
Mo, 21.01. 7:00 34
Mo, 21.01. 1:00 35
So, 20.01. 19:00 35
So, 20.01. 13:00 35
Ortszeit Schneehöhe (cm)
Di, 22.01. 8:30 34
Di, 22.01. 8:20 34
Di, 22.01. 8:10 34
Di, 22.01. 8:00 34
Di, 22.01. 7:50 34
Di, 22.01. 7:40 34
Di, 22.01. 7:30 34
Di, 22.01. 7:00 34
Di, 22.01. 6:30 34
Di, 22.01. 6:00 34
Di, 22.01. 5:30 34
Link zu dieser Seite / Seite empfehlen

Das Wetter in ...